createdAt,value
2023-05-11T00:00:44.430Z,14.32
2023-05-11T00:03:15.208Z,14.22
2023-05-11T00:05:49.432Z,14.08
2023-05-11T00:08:20.179Z,13.99
2023-05-11T00:10:51.009Z,14.00
2023-05-11T00:13:21.569Z,13.95
2023-05-11T00:15:52.234Z,13.90
2023-05-11T00:18:23.408Z,13.87
2023-05-11T00:20:54.446Z,13.83
2023-05-11T00:23:25.631Z,13.77
2023-05-11T00:25:56.143Z,13.77
2023-05-11T00:28:26.949Z,13.74
2023-05-11T00:31:00.571Z,13.72
2023-05-11T00:33:31.261Z,13.71
2023-05-11T00:36:01.792Z,13.72
2023-05-11T00:38:32.693Z,13.71
2023-05-11T00:41:03.660Z,13.64
2023-05-11T00:43:34.514Z,13.63
2023-05-11T00:46:05.507Z,13.52
2023-05-11T00:48:36.053Z,13.52
2023-05-11T00:51:07.346Z,13.43
2023-05-11T00:53:38.654Z,13.40
2023-05-11T00:56:10.599Z,13.37
2023-05-11T00:58:41.289Z,13.37
2023-05-11T01:01:11.939Z,13.34
2023-05-11T01:03:42.729Z,13.26
2023-05-11T01:06:19.135Z,13.28
2023-05-11T01:08:55.896Z,13.24
2023-05-11T01:11:51.311Z,13.14
2023-05-11T01:14:30.619Z,13.16
2023-05-11T01:17:04.351Z,13.16
2023-05-11T01:19:44.022Z,13.14
2023-05-11T01:22:27.463Z,13.08
2023-05-11T01:25:13.086Z,13.10
2023-05-11T01:28:15.562Z,13.03
2023-05-11T01:30:58.230Z,12.98
2023-05-11T01:33:34.536Z,12.98
2023-05-11T01:36:08.450Z,12.97
2023-05-11T01:38:45.016Z,12.97
2023-05-11T01:41:18.648Z,13.00
2023-05-11T01:43:52.327Z,13.17
2023-05-11T01:46:26.265Z,13.18
2023-05-11T01:48:59.824Z,13.20
2023-05-11T01:51:38.303Z,13.22
2023-05-11T01:54:10.467Z,13.18
2023-05-11T01:56:44.591Z,13.14
2023-05-11T01:59:17.200Z,13.16
2023-05-11T02:01:48.525Z,13.11
2023-05-11T02:04:22.103Z,13.06
2023-05-11T02:06:55.827Z,13.17
2023-05-11T02:09:27.821Z,13.10
2023-05-11T02:11:59.600Z,13.14
2023-05-11T02:14:34.240Z,13.04
2023-05-11T02:17:07.561Z,13.06
2023-05-11T02:19:39.743Z,13.16
2023-05-11T02:22:11.885Z,13.14
2023-05-11T02:24:43.183Z,13.02
2023-05-11T02:27:13.777Z,13.00
2023-05-11T02:29:44.558Z,13.10
2023-05-11T02:32:18.298Z,12.99
2023-05-11T02:35:00.116Z,13.01
2023-05-11T02:37:33.489Z,12.90
2023-05-11T02:40:07.680Z,12.87
2023-05-11T02:42:41.233Z,12.86
2023-05-11T02:45:15.301Z,12.95
2023-05-11T02:47:54.998Z,12.82
2023-05-11T02:50:29.143Z,12.82
2023-05-11T02:53:02.939Z,12.86
2023-05-11T02:55:33.612Z,12.88
2023-05-11T02:58:04.780Z,12.95
2023-05-11T03:00:35.795Z,12.98
2023-05-11T03:03:06.858Z,12.93
2023-05-11T03:05:37.913Z,12.92
2023-05-11T03:08:09.022Z,12.86
2023-05-11T03:10:41.000Z,12.96
2023-05-11T03:13:11.971Z,12.88
2023-05-11T03:15:43.545Z,12.93
2023-05-11T03:18:15.203Z,12.91
2023-05-11T03:20:46.353Z,12.88
2023-05-11T03:23:18.837Z,12.86
2023-05-11T03:25:49.585Z,12.88
2023-05-11T03:28:23.058Z,12.80
2023-05-11T03:30:55.087Z,12.87
2023-05-11T03:33:25.761Z,12.84
2023-05-11T03:35:57.814Z,12.82
2023-05-11T03:38:30.693Z,12.85
2023-05-11T03:41:02.162Z,12.86
2023-05-11T03:43:35.826Z,12.87
2023-05-11T03:46:07.877Z,12.94
2023-05-11T03:48:41.488Z,12.84
2023-05-11T03:51:13.705Z,12.91
2023-05-11T03:53:44.516Z,12.83
2023-05-11T03:56:15.254Z,12.84
2023-05-11T03:58:46.288Z,12.87
2023-05-11T04:01:17.105Z,12.89
2023-05-11T04:03:52.399Z,12.88
2023-05-11T04:06:23.455Z,12.90
2023-05-11T04:08:54.260Z,12.91
2023-05-11T04:11:25.044Z,12.91
2023-05-11T04:13:55.672Z,12.90
2023-05-11T04:16:26.628Z,13.02
2023-05-11T04:18:58.019Z,12.99
2023-05-11T04:21:29.858Z,12.98
2023-05-11T04:24:00.894Z,13.06
2023-05-11T04:26:33.120Z,13.02
2023-05-11T04:29:05.159Z,13.02
2023-05-11T04:31:35.955Z,13.08
2023-05-11T04:34:09.509Z,13.09
2023-05-11T04:36:40.251Z,13.23
2023-05-11T04:39:10.955Z,13.16
2023-05-11T04:41:43.113Z,13.20
2023-05-11T04:44:13.742Z,13.28
2023-05-11T04:46:44.344Z,13.24
2023-05-11T04:49:14.916Z,13.31
2023-05-11T04:51:45.618Z,13.43
2023-05-11T04:54:17.653Z,13.48
2023-05-11T04:56:49.253Z,14.02
2023-05-11T04:59:19.938Z,15.46
2023-05-11T05:01:52.419Z,16.66
2023-05-11T05:04:24.026Z,17.53
2023-05-11T05:06:55.045Z,16.86
2023-05-11T05:09:27.162Z,16.66
2023-05-11T05:11:57.928Z,16.16
2023-05-11T05:14:28.496Z,16.78
2023-05-11T05:17:00.800Z,18.32
2023-05-11T05:19:32.623Z,17.31
2023-05-11T05:22:04.656Z,17.49
2023-05-11T05:24:35.398Z,18.19
2023-05-11T05:27:07.384Z,17.36
2023-05-11T05:29:37.989Z,18.16
2023-05-11T05:32:08.650Z,17.89
2023-05-11T05:34:39.212Z,19.45
2023-05-11T05:37:10.259Z,17.89
2023-05-11T05:39:41.176Z,17.60
2023-05-11T05:42:11.849Z,17.66
2023-05-11T05:44:42.455Z,17.46
2023-05-11T05:47:13.220Z,19.11
2023-05-11T05:49:43.960Z,19.44
2023-05-11T05:52:14.763Z,19.57
2023-05-11T05:54:45.678Z,18.66
2023-05-11T05:57:16.394Z,19.18
2023-05-11T05:59:47.019Z,18.26
2023-05-11T06:02:18.829Z,19.11
2023-05-11T06:04:50.755Z,18.59
2023-05-11T06:07:23.057Z,18.74
2023-05-11T06:09:54.025Z,20.17
2023-05-11T06:12:24.663Z,21.88
2023-05-11T06:14:55.187Z,21.00
2023-05-11T06:17:27.571Z,20.18
2023-05-11T06:19:58.270Z,22.37
2023-05-11T06:22:28.972Z,25.36
2023-05-11T06:25:00.587Z,22.24
2023-05-11T06:27:31.361Z,23.58
2023-05-11T06:30:01.963Z,25.35
2023-05-11T06:32:34.362Z,26.73
2023-05-11T06:35:06.542Z,26.52
2023-05-11T06:37:37.270Z,22.60
2023-05-11T06:40:09.231Z,21.92
2023-05-11T06:42:39.806Z,20.44
2023-05-11T06:45:11.469Z,19.12
2023-05-11T06:47:42.513Z,18.34
2023-05-11T06:50:13.461Z,17.89
2023-05-11T06:52:44.050Z,17.56
2023-05-11T06:55:14.817Z,17.59
2023-05-11T06:57:48.644Z,17.41
2023-05-11T07:00:21.886Z,17.34
2023-05-11T07:02:52.873Z,17.06
2023-05-11T07:05:24.810Z,17.16
2023-05-11T07:07:56.741Z,17.26
2023-05-11T07:10:27.467Z,17.50
2023-05-11T07:12:58.297Z,17.59
2023-05-11T07:15:29.179Z,17.40
2023-05-11T07:18:01.415Z,17.52
2023-05-11T07:20:32.443Z,17.51
2023-05-11T07:23:03.480Z,17.77
2023-05-11T07:25:34.828Z,17.94
2023-05-11T07:28:05.821Z,17.70
2023-05-11T07:30:36.659Z,17.74
2023-05-11T07:33:14.105Z,17.76
2023-05-11T07:35:46.164Z,17.97
2023-05-11T07:38:18.216Z,18.14
2023-05-11T07:40:49.077Z,18.19
2023-05-11T07:43:19.589Z,18.12
2023-05-11T07:45:50.257Z,18.19
2023-05-11T07:48:22.625Z,18.16
2023-05-11T07:50:53.296Z,18.32
2023-05-11T07:53:23.865Z,18.47
2023-05-11T07:55:54.441Z,18.54
2023-05-11T07:58:25.637Z,18.48
2023-05-11T08:00:56.903Z,18.32
2023-05-11T08:03:29.060Z,18.53
2023-05-11T08:05:59.741Z,18.70
2023-05-11T08:08:30.828Z,18.77
2023-05-11T08:11:02.410Z,18.80
2023-05-11T08:13:33.192Z,18.82
2023-05-11T08:16:06.849Z,18.74
2023-05-11T08:18:40.603Z,18.72
2023-05-11T08:21:11.488Z,18.88
2023-05-11T08:23:43.898Z,18.90
2023-05-11T08:26:16.207Z,18.94
2023-05-11T08:28:47.569Z,19.14
2023-05-11T08:31:19.053Z,19.37
2023-05-11T08:33:49.875Z,19.21
2023-05-11T08:36:23.566Z,19.20
2023-05-11T08:38:58.985Z,19.28
2023-05-11T08:41:28.961Z,19.68
2023-05-11T08:44:01.474Z,19.42
2023-05-11T08:46:33.776Z,19.48
2023-05-11T08:49:04.622Z,19.58
2023-05-11T08:51:35.450Z,19.77
2023-05-11T08:54:07.675Z,19.90
2023-05-11T08:56:40.600Z,20.02
2023-05-11T08:59:14.225Z,20.31
2023-05-11T09:01:46.355Z,20.21
2023-05-11T09:04:20.270Z,19.92
2023-05-11T09:06:51.662Z,19.97
2023-05-11T09:09:23.101Z,19.91
2023-05-11T09:11:55.490Z,19.95
2023-05-11T09:14:27.613Z,20.02
2023-05-11T09:16:59.709Z,20.12
2023-05-11T09:19:30.370Z,20.30
2023-05-11T09:22:01.225Z,20.11
2023-05-11T09:24:33.658Z,20.24
2023-05-11T09:27:11.017Z,20.22
2023-05-11T09:29:41.586Z,20.32
2023-05-11T09:32:12.551Z,20.58
2023-05-11T09:34:43.540Z,20.66
2023-05-11T09:37:19.776Z,20.72
2023-05-11T09:42:25.659Z,20.84
2023-05-11T09:44:56.713Z,20.90
2023-05-11T09:47:27.725Z,20.94
2023-05-11T09:49:58.577Z,21.10
2023-05-11T09:52:30.286Z,20.92
2023-05-11T09:55:03.952Z,20.32
2023-05-11T09:57:34.586Z,20.62
2023-05-11T10:00:07.009Z,20.78
2023-05-11T10:02:37.891Z,21.05
2023-05-11T10:05:16.870Z,20.85
2023-05-11T10:07:50.650Z,20.96
2023-05-11T10:10:22.295Z,21.22
2023-05-11T10:12:53.600Z,21.26
2023-05-11T10:15:26.683Z,21.52
2023-05-11T10:17:59.821Z,21.67
2023-05-11T10:20:30.625Z,21.58
2023-05-11T10:23:03.091Z,21.60
2023-05-11T10:25:35.428Z,21.60
2023-05-11T10:28:06.552Z,21.64
2023-05-11T10:30:37.978Z,21.81
2023-05-11T10:33:09.223Z,21.82
2023-05-11T10:35:40.236Z,21.38
2023-05-11T10:38:11.851Z,21.12
2023-05-11T10:40:45.837Z,21.20
2023-05-11T10:43:28.578Z,21.18
2023-05-11T10:46:03.971Z,20.74
2023-05-11T10:49:10.498Z,20.92
2023-05-11T10:52:12.140Z,20.94
2023-05-11T10:55:19.908Z,20.93
2023-05-11T10:58:06.727Z,21.53
2023-05-11T11:00:49.097Z,21.74
2023-05-11T11:03:20.120Z,21.84
2023-05-11T11:05:51.011Z,21.24
2023-05-11T11:08:27.603Z,21.08
2023-05-11T11:10:59.077Z,21.18
2023-05-11T11:13:32.556Z,21.14
2023-05-11T11:16:16.232Z,21.40
2023-05-11T11:18:47.615Z,21.80
2023-05-11T11:21:21.476Z,21.43
2023-05-11T11:23:54.361Z,21.71
2023-05-11T11:26:50.436Z,21.82
2023-05-11T11:29:21.324Z,21.77
2023-05-11T11:31:53.486Z,21.89
2023-05-11T11:34:33.209Z,21.66
2023-05-11T11:37:04.494Z,22.12
2023-05-11T11:39:46.848Z,22.65
2023-05-11T11:42:35.079Z,22.65
2023-05-11T11:45:31.571Z,22.01
2023-05-11T11:48:17.552Z,21.54
2023-05-11T11:50:49.963Z,21.65
2023-05-11T11:53:44.125Z,21.53
2023-05-11T11:56:21.936Z,21.26
2023-05-11T11:58:55.798Z,21.34
2023-05-11T12:01:29.468Z,21.87
2023-05-11T12:04:29.757Z,21.53
2023-05-11T12:07:01.342Z,21.24
2023-05-11T12:09:32.123Z,21.11
2023-05-11T12:12:06.519Z,20.78
2023-05-11T12:14:37.417Z,20.94
2023-05-11T12:17:13.598Z,20.94
2023-05-11T12:19:45.302Z,21.01
2023-05-11T12:22:18.822Z,21.35
2023-05-11T12:24:49.572Z,21.27
2023-05-11T12:27:20.215Z,21.36
2023-05-11T12:29:53.179Z,21.49
2023-05-11T12:32:32.487Z,21.71
2023-05-11T12:35:05.138Z,21.88
2023-05-11T12:37:37.292Z,22.84
2023-05-11T12:40:13.761Z,23.31
2023-05-11T12:42:59.882Z,23.07
2023-05-11T12:45:30.884Z,22.61
2023-05-11T12:48:03.656Z,22.65
2023-05-11T12:50:37.387Z,22.56
2023-05-11T12:53:22.947Z,22.28
2023-05-11T12:56:00.671Z,22.54
2023-05-11T12:58:41.756Z,22.51
2023-05-11T13:01:12.770Z,22.08
2023-05-11T13:03:47.736Z,22.22
2023-05-11T13:06:20.777Z,22.73
2023-05-11T13:08:54.860Z,22.28
2023-05-11T13:11:27.394Z,22.20
2023-05-11T13:14:00.615Z,21.96
2023-05-11T13:16:34.789Z,22.05
2023-05-11T13:19:08.528Z,22.36
2023-05-11T13:21:39.719Z,22.74
2023-05-11T13:24:13.376Z,22.31
2023-05-11T13:26:44.260Z,21.96
2023-05-11T13:29:15.072Z,21.91
2023-05-11T13:31:49.573Z,22.22
2023-05-11T13:34:21.277Z,21.97
2023-05-11T13:36:52.329Z,21.95
2023-05-11T13:39:22.988Z,21.95
2023-05-11T13:41:55.833Z,22.44
2023-05-11T13:44:25.863Z,22.56
2023-05-11T13:46:56.820Z,22.30
2023-05-11T13:49:28.181Z,21.74
2023-05-11T13:52:00.669Z,22.04
2023-05-11T13:54:33.985Z,22.40
2023-05-11T13:57:05.452Z,22.41
2023-05-11T13:59:36.124Z,22.68
2023-05-11T14:02:07.507Z,22.32
2023-05-11T14:04:41.363Z,22.04
2023-05-11T14:07:12.116Z,22.59
2023-05-11T14:09:47.829Z,22.10
2023-05-11T14:12:31.566Z,21.92
2023-05-11T14:15:02.358Z,22.12
2023-05-11T14:17:33.365Z,22.18
2023-05-11T14:20:06.705Z,22.15
2023-05-11T14:22:38.187Z,21.84
2023-05-11T14:25:09.556Z,21.80
2023-05-11T14:27:40.882Z,21.86
2023-05-11T14:30:14.717Z,21.81
2023-05-11T14:32:45.930Z,22.37
2023-05-11T14:35:17.306Z,21.98
2023-05-11T14:37:50.790Z,22.51
2023-05-11T14:40:21.613Z,22.58
2023-05-11T14:42:52.223Z,22.49
2023-05-11T14:45:24.899Z,22.20
2023-05-11T14:47:56.710Z,21.99
2023-05-11T14:50:28.201Z,21.81
2023-05-11T14:52:58.991Z,21.85
2023-05-11T14:55:30.327Z,21.78
2023-05-11T14:58:02.660Z,21.88
2023-05-11T15:00:33.726Z,22.14
2023-05-11T15:03:06.560Z,22.23
2023-05-11T15:05:40.552Z,22.05
2023-05-11T15:08:25.818Z,21.91
2023-05-11T15:10:47.735Z,21.81
2023-05-11T15:13:19.352Z,21.91
2023-05-11T15:15:53.000Z,21.70
2023-05-11T15:18:25.345Z,21.73
2023-05-11T15:20:55.968Z,21.82
2023-05-11T15:23:26.737Z,21.41
2023-05-11T15:26:00.952Z,21.54
2023-05-11T15:28:33.173Z,21.72
2023-05-11T15:31:04.945Z,21.62
2023-05-11T15:33:35.712Z,21.52
2023-05-11T15:36:10.879Z,21.65
2023-05-11T15:38:42.975Z,21.68
2023-05-11T15:41:13.806Z,21.64
2023-05-11T15:43:45.879Z,21.71
2023-05-11T15:46:17.338Z,21.86
2023-05-11T15:48:47.940Z,21.58
2023-05-11T15:51:19.491Z,21.59
2023-05-11T15:53:50.266Z,21.48
2023-05-11T15:56:22.828Z,21.67
2023-05-11T15:58:53.404Z,21.85
2023-05-11T16:01:24.135Z,21.60
2023-05-11T16:03:57.100Z,21.32
2023-05-11T16:06:31.523Z,21.40
2023-05-11T16:09:02.088Z,21.14
2023-05-11T16:11:33.359Z,21.22
2023-05-11T16:14:04.792Z,21.16
2023-05-11T16:16:35.507Z,21.05
2023-05-11T16:19:06.657Z,21.31
2023-05-11T16:21:37.489Z,21.02
2023-05-11T16:24:08.436Z,20.99
2023-05-11T16:26:40.746Z,20.96
2023-05-11T16:29:11.479Z,21.01
2023-05-11T16:31:42.172Z,20.96
2023-05-11T16:34:12.902Z,20.80
2023-05-11T16:36:45.008Z,20.62
2023-05-11T16:39:15.694Z,20.68
2023-05-11T16:41:46.448Z,20.64
2023-05-11T16:44:17.119Z,20.71
2023-05-11T16:46:49.213Z,20.58
2023-05-11T16:49:22.434Z,20.72
2023-05-11T16:51:53.048Z,20.90
2023-05-11T16:54:24.094Z,20.92
2023-05-11T16:56:55.426Z,22.08
2023-05-11T16:59:26.052Z,23.28
2023-05-11T17:01:56.869Z,22.99
2023-05-11T17:04:27.471Z,23.51
2023-05-11T17:06:58.071Z,22.84
2023-05-11T17:09:29.191Z,22.43
2023-05-11T17:12:06.577Z,21.54
2023-05-11T17:14:37.546Z,21.15
2023-05-11T17:17:08.189Z,20.84
2023-05-11T17:19:38.947Z,20.68
2023-05-11T17:22:09.816Z,20.81
2023-05-11T17:24:41.140Z,20.74
2023-05-11T17:27:11.922Z,20.66
2023-05-11T17:29:48.146Z,20.73
2023-05-11T17:32:18.984Z,20.70
2023-05-11T17:34:50.038Z,20.66
2023-05-11T17:37:31.325Z,20.47
2023-05-11T17:39:53.179Z,20.50
2023-05-11T17:42:23.768Z,20.60
2023-05-11T17:44:54.482Z,20.66
2023-05-11T17:47:25.096Z,20.54
2023-05-11T17:49:57.393Z,20.46
2023-05-11T17:52:28.136Z,20.27
2023-05-11T17:54:58.897Z,20.34
2023-05-11T17:57:29.576Z,20.21
2023-05-11T18:00:02.762Z,20.20
2023-05-11T18:02:34.400Z,20.08
2023-05-11T18:05:07.155Z,20.03
2023-05-11T18:07:37.852Z,20.03
2023-05-11T18:10:10.317Z,19.96
2023-05-11T18:12:42.431Z,19.98
2023-05-11T18:15:15.111Z,19.91
2023-05-11T18:17:45.818Z,19.91
2023-05-11T18:20:17.461Z,19.86
2023-05-11T18:22:48.685Z,19.77
2023-05-11T18:25:19.536Z,19.80
2023-05-11T18:27:51.641Z,19.86
2023-05-11T18:30:24.101Z,19.88
2023-05-11T18:32:54.825Z,19.80
2023-05-11T18:35:27.485Z,19.75
2023-05-11T18:37:59.527Z,19.72
2023-05-11T18:40:31.337Z,19.70
2023-05-11T18:43:02.042Z,19.69
2023-05-11T18:45:34.822Z,19.65
2023-05-11T18:48:06.191Z,19.55
2023-05-11T18:50:38.640Z,19.60
2023-05-11T18:53:09.615Z,19.58
2023-05-11T18:55:51.952Z,19.55
2023-05-11T18:58:13.813Z,19.48
2023-05-11T19:00:44.534Z,19.44
2023-05-11T19:03:17.137Z,19.42
2023-05-11T19:05:48.456Z,19.49
2023-05-11T19:08:21.091Z,19.41
2023-05-11T19:10:51.749Z,19.41
2023-05-11T19:13:23.216Z,19.40
2023-05-11T19:15:53.937Z,19.41
2023-05-11T19:18:26.214Z,19.28
2023-05-11T19:20:57.618Z,19.24
2023-05-11T19:23:28.152Z,19.24
2023-05-11T19:25:59.500Z,19.19
2023-05-11T19:28:30.606Z,19.16
2023-05-11T19:31:03.972Z,19.16
2023-05-11T19:33:36.800Z,19.18
2023-05-11T19:36:07.786Z,19.15
2023-05-11T19:38:38.699Z,19.07
2023-05-11T19:41:09.731Z,19.15
2023-05-11T19:43:40.401Z,19.05
2023-05-11T19:46:12.083Z,18.97
2023-05-11T19:48:44.461Z,18.92
2023-05-11T19:51:15.507Z,18.89
2023-05-11T19:53:48.100Z,18.82
2023-05-11T19:56:19.898Z,18.70
2023-05-11T19:58:50.651Z,18.68
2023-05-11T20:01:21.289Z,18.68
2023-05-11T20:03:52.768Z,18.62
2023-05-11T20:06:25.766Z,18.52
2023-05-11T20:08:59.445Z,18.36
2023-05-11T20:11:31.749Z,18.32
2023-05-11T20:14:02.669Z,18.24
2023-05-11T20:16:33.489Z,18.25
2023-05-11T20:19:04.509Z,18.29
2023-05-11T20:21:36.933Z,18.32
2023-05-11T20:24:09.451Z,18.34
2023-05-11T20:26:40.172Z,18.37
2023-05-11T20:29:12.320Z,18.37
2023-05-11T20:31:47.710Z,18.38
2023-05-11T20:34:20.855Z,18.42
2023-05-11T20:36:53.181Z,18.42
2023-05-11T20:39:23.889Z,18.41
2023-05-11T20:41:54.763Z,18.38
2023-05-11T20:44:25.760Z,18.35
2023-05-11T20:46:56.630Z,18.37
2023-05-11T20:49:38.283Z,18.32
2023-05-11T20:52:00.291Z,18.32
2023-05-11T20:54:32.540Z,18.19
2023-05-11T20:57:08.205Z,18.22
2023-05-11T21:02:11.504Z,18.14
2023-05-11T21:04:42.179Z,18.16
2023-05-11T21:07:12.872Z,18.14
2023-05-11T21:09:46.619Z,18.10
2023-05-11T21:12:17.198Z,17.99
2023-05-11T21:14:47.730Z,18.03
2023-05-11T21:17:18.595Z,17.96
2023-05-11T21:19:49.319Z,17.95
2023-05-11T21:22:20.023Z,17.96
2023-05-11T21:24:50.587Z,17.86
2023-05-11T21:27:22.403Z,17.86
2023-05-11T21:29:53.044Z,17.85
2023-05-11T21:32:24.505Z,17.88
2023-05-11T21:34:55.123Z,17.84
2023-05-11T21:37:25.992Z,17.83
2023-05-11T21:39:56.610Z,17.72
2023-05-11T21:42:27.464Z,17.72
2023-05-11T21:44:58.066Z,17.66
2023-05-11T21:47:28.836Z,17.62
2023-05-11T21:50:00.214Z,17.65
2023-05-11T21:52:31.081Z,17.60
2023-05-11T21:55:01.749Z,17.56
2023-05-11T21:57:32.322Z,17.60
2023-05-11T22:00:03.003Z,17.54
2023-05-11T22:02:34.696Z,17.46
2023-05-11T22:05:05.970Z,17.45
2023-05-11T22:07:36.793Z,17.38
2023-05-11T22:10:09.189Z,17.36
2023-05-11T22:12:40.261Z,17.38
2023-05-11T22:15:12.174Z,17.32
2023-05-11T22:17:43.601Z,17.27
2023-05-11T22:20:14.973Z,17.22
2023-05-11T22:22:46.084Z,17.23
2023-05-11T22:25:18.387Z,17.20
2023-05-11T22:27:48.996Z,17.18
2023-05-11T22:30:21.569Z,17.22
2023-05-11T22:32:52.477Z,17.20
2023-05-11T22:35:23.322Z,17.23
2023-05-11T22:37:54.274Z,17.23
2023-05-11T22:40:25.241Z,17.24
2023-05-11T22:42:55.803Z,17.24
2023-05-11T22:45:26.412Z,17.23
2023-05-11T22:47:56.982Z,17.20
2023-05-11T22:50:28.064Z,17.19
2023-05-11T22:52:58.637Z,17.16
2023-05-11T22:55:32.293Z,17.07
2023-05-11T22:58:03.760Z,17.03
2023-05-11T23:00:35.147Z,17.02
2023-05-11T23:03:06.015Z,17.01
2023-05-11T23:05:37.660Z,16.87
2023-05-11T23:08:08.308Z,16.84
2023-05-11T23:10:40.689Z,16.73
2023-05-11T23:13:11.757Z,16.61
2023-05-11T23:15:42.557Z,16.54
2023-05-11T23:18:13.369Z,16.48
2023-05-11T23:20:44.379Z,16.46
2023-05-11T23:23:14.912Z,16.36
2023-05-11T23:25:46.907Z,16.24
2023-05-11T23:28:17.709Z,16.26
2023-05-11T23:30:48.344Z,16.31
2023-05-11T23:33:19.246Z,16.14
2023-05-11T23:35:49.832Z,16.25
2023-05-11T23:38:20.364Z,16.13
2023-05-11T23:40:51.183Z,16.16
2023-05-11T23:43:25.878Z,16.05
2023-05-11T23:45:57.733Z,16.02
2023-05-11T23:48:28.317Z,16.00
2023-05-11T23:51:00.779Z,16.03
2023-05-11T23:53:31.368Z,16.00
2023-05-11T23:56:02.057Z,15.94
2023-05-11T23:58:32.632Z,15.85
